Florinea, Brazil
Current Conditions -  °F | °C
As of 5:00 PM on Thursday 23 Oct 2014 (Local Time) from SBLO Reporting Station
Scattered Clouds Scattered Clouds  
Wind Chill: 32°   Ceiling: Unl
Heat Index: 32°   Visibility: 6mi
Dew Point: 17°   Wind: 5mph
Humidity: 40%   Direction: 90°E
Pressure: 29.94"   Gusts: NA
Location:  22.9°S, 50.73°W
Report Text: SBLO 231900Z 09004KT 9999 SCT030 32/17 Q1014
Loading
Personal Weather Stations






























Interactive Weather Map
Tropical Storm Tracking
New forecast layout! Learn more

10-Day Weather Forecast

Advertisements
Track Severe Weather on mobile